sensor_id;sensor_type;location;lat;lon;timestamp;temperature;humidity
79016;DHT22;72726;44.842;37.556;2024-03-07T00:00:09;6.33;85.76
79016;DHT22;72726;44.842;37.556;2024-03-07T00:01:20;6.35;85.67
79016;DHT22;72726;44.842;37.556;2024-03-07T00:02:22;6.36;85.65
79016;DHT22;72726;44.842;37.556;2024-03-07T00:03:24;6.36;84.80
79016;DHT22;72726;44.842;37.556;2024-03-07T00:04:26;6.36;85.00
79016;DHT22;72726;44.842;37.556;2024-03-07T00:05:27;6.33;85.35
79016;DHT22;72726;44.842;37.556;2024-03-07T00:06:28;6.33;85.24
79016;DHT22;72726;44.842;37.556;2024-03-07T00:07:30;6.30;85.45
79016;DHT22;72726;44.842;37.556;2024-03-07T00:08:31;6.32;85.50
79016;DHT22;72726;44.842;37.556;2024-03-07T00:09:34;6.32;85.70
79016;DHT22;72726;44.842;37.556;2024-03-07T00:10:55;6.29;85.55
79016;DHT22;72726;44.842;37.556;2024-03-07T00:11:56;6.28;86.01
79016;DHT22;72726;44.842;37.556;2024-03-07T00:12:58;6.32;85.96
79016;DHT22;72726;44.842;37.556;2024-03-07T00:13:59;6.33;86.14
79016;DHT22;72726;44.842;37.556;2024-03-07T00:15:02;6.36;85.85
79016;DHT22;72726;44.842;37.556;2024-03-07T00:16:04;6.36;85.50
79016;DHT22;72726;44.842;37.556;2024-03-07T00:17:06;6.40;85.54
79016;DHT22;72726;44.842;37.556;2024-03-07T00:18:07;6.40;85.42
79016;DHT22;72726;44.842;37.556;2024-03-07T00:19:08;6.42;85.42
79016;DHT22;72726;44.842;37.556;2024-03-07T00:20:10;6.45;85.58
79016;DHT22;72726;44.842;37.556;2024-03-07T00:21:15;6.47;85.37
79016;DHT22;72726;44.842;37.556;2024-03-07T00:22:16;6.46;85.47
79016;DHT22;72726;44.842;37.556;2024-03-07T00:23:18;6.50;85.60
79016;DHT22;72726;44.842;37.556;2024-03-07T00:24:20;6.53;85.59
79016;DHT22;72726;44.842;37.556;2024-03-07T00:25:22;6.54;85.01
79016;DHT22;72726;44.842;37.556;2024-03-07T00:26:23;6.53;84.62
79016;DHT22;72726;44.842;37.556;2024-03-07T00:27:24;6.53;84.56
79016;DHT22;72726;44.842;37.556;2024-03-07T00:28:27;6.54;84.77
79016;DHT22;72726;44.842;37.556;2024-03-07T00:29:33;6.54;84.84
79016;DHT22;72726;44.842;37.556;2024-03-07T00:30:36;6.58;84.51
79016;DHT22;72726;44.842;37.556;2024-03-07T00:31:38;6.58;84.85
79016;DHT22;72726;44.842;37.556;2024-03-07T00:32:39;6.57;85.00
79016;DHT22;72726;44.842;37.556;2024-03-07T00:33:41;6.63;84.92
79016;DHT22;72726;44.842;37.556;2024-03-07T00:34:43;6.64;84.83
79016;DHT22;72726;44.842;37.556;2024-03-07T00:35:45;6.67;84.73
79016;DHT22;72726;44.842;37.556;2024-03-07T00:36:46;6.69;84.14
79016;DHT22;72726;44.842;37.556;2024-03-07T00:37:47;6.66;84.00
79016;DHT22;72726;44.842;37.556;2024-03-07T00:38:49;6.66;84.08
79016;DHT22;72726;44.842;37.556;2024-03-07T00:39:51;6.64;84.19
79016;DHT22;72726;44.842;37.556;2024-03-07T00:40:52;6.66;83.70
79016;DHT22;72726;44.842;37.556;2024-03-07T00:41:53;6.67;83.71
79016;DHT22;72726;44.842;37.556;2024-03-07T00:42:55;6.64;83.71
79016;DHT22;72726;44.842;37.556;2024-03-07T00:43:56;6.67;83.83
79016;DHT22;72726;44.842;37.556;2024-03-07T00:44:57;6.69;83.95
79016;DHT22;72726;44.842;37.556;2024-03-07T00:45:59;6.66;83.37
79016;DHT22;72726;44.842;37.556;2024-03-07T00:47:01;6.63;83.79
79016;DHT22;72726;44.842;37.556;2024-03-07T00:48:05;6.60;83.56
79016;DHT22;72726;44.842;37.556;2024-03-07T00:49:07;6.58;84.21
79016;DHT22;72726;44.842;37.556;2024-03-07T00:50:08;6.58;84.57
79016;DHT22;72726;44.842;37.556;2024-03-07T00:51:10;6.60;84.93
79016;DHT22;72726;44.842;37.556;2024-03-07T00:52:12;6.62;84.85
79016;DHT22;72726;44.842;37.556;2024-03-07T00:53:14;6.62;84.54
79016;DHT22;72726;44.842;37.556;2024-03-07T00:54:16;6.58;84.11
79016;DHT22;72726;44.842;37.556;2024-03-07T00:55:17;6.56;84.26
79016;DHT22;72726;44.842;37.556;2024-03-07T00:56:19;6.52;84.40
79016;DHT22;72726;44.842;37.556;2024-03-07T00:57:22;6.50;84.53
79016;DHT22;72726;44.842;37.556;2024-03-07T00:58:25;6.56;84.77
79016;DHT22;72726;44.842;37.556;2024-03-07T00:59:28;6.50;84.75
79016;DHT22;72726;44.842;37.556;2024-03-07T01:00:30;6.50;84.76
79016;DHT22;72726;44.842;37.556;2024-03-07T01:01:32;6.52;84.84
79016;DHT22;72726;44.842;37.556;2024-03-07T01:02:42;6.53;85.17
79016;DHT22;72726;44.842;37.556;2024-03-07T01:03:47;6.52;85.00
79016;DHT22;72726;44.842;37.556;2024-03-07T01:04:51;6.54;84.71
79016;DHT22;72726;44.842;37.556;2024-03-07T01:05:52;6.56;84.70
79016;DHT22;72726;44.842;37.556;2024-03-07T01:06:53;6.56;84.92
79016;DHT22;72726;44.842;37.556;2024-03-07T01:07:55;6.60;84.84
79016;DHT22;72726;44.842;37.556;2024-03-07T01:08:56;6.63;84.86
79016;DHT22;72726;44.842;37.556;2024-03-07T01:09:58;6.69;84.56
79016;DHT22;72726;44.842;37.556;2024-03-07T01:11:03;6.71;84.54
79016;DHT22;72726;44.842;37.556;2024-03-07T01:12:10;6.73;84.21
79016;DHT22;72726;44.842;37.556;2024-03-07T01:13:12;6.73;83.88
79016;DHT22;72726;44.842;37.556;2024-03-07T01:14:23;6.67;83.46
79016;DHT22;72726;44.842;37.556;2024-03-07T01:15:24;6.63;83.52
79016;DHT22;72726;44.842;37.556;2024-03-07T01:16:27;6.57;83.84
79016;DHT22;72726;44.842;37.556;2024-03-07T01:17:28;6.54;83.84
79016;DHT22;72726;44.842;37.556;2024-03-07T01:18:30;6.53;83.98
79016;DHT22;72726;44.842;37.556;2024-03-07T01:19:34;6.52;84.15
79016;DHT22;72726;44.842;37.556;2024-03-07T01:20:35;6.49;84.15
79016;DHT22;72726;44.842;37.556;2024-03-07T01:21:37;6.49;83.90
79016;DHT22;72726;44.842;37.556;2024-03-07T01:22:38;6.49;84.31
79016;DHT22;72726;44.842;37.556;2024-03-07T01:23:40;6.45;84.07
79016;DHT22;72726;44.842;37.556;2024-03-07T01:24:41;6.43;83.93
79016;DHT22;72726;44.842;37.556;2024-03-07T01:25:42;6.43;84.47
79016;DHT22;72726;44.842;37.556;2024-03-07T01:26:44;6.40;84.64
79016;DHT22;72726;44.842;37.556;2024-03-07T01:27:46;6.39;84.65
79016;DHT22;72726;44.842;37.556;2024-03-07T01:28:48;6.37;84.63
79016;DHT22;72726;44.842;37.556;2024-03-07T01:29:50;6.37;84.42
79016;DHT22;72726;44.842;37.556;2024-03-07T01:30:52;6.32;84.45
79016;DHT22;72726;44.842;37.556;2024-03-07T01:31:55;6.26;84.86
79016;DHT22;72726;44.842;37.556;2024-03-07T01:32:56;6.25;85.56
79016;DHT22;72726;44.842;37.556;2024-03-07T01:33:58;6.26;85.79
79016;DHT22;72726;44.842;37.556;2024-03-07T01:34:59;6.28;85.58
79016;DHT22;72726;44.842;37.556;2024-03-07T01:36:02;6.22;85.17
79016;DHT22;72726;44.842;37.556;2024-03-07T01:37:03;6.16;85.10
79016;DHT22;72726;44.842;37.556;2024-03-07T01:38:05;6.12;85.39
79016;DHT22;72726;44.842;37.556;2024-03-07T01:39:06;6.08;85.82
79016;DHT22;72726;44.842;37.556;2024-03-07T01:40:09;6.08;86.17
79016;DHT22;72726;44.842;37.556;2024-03-07T01:41:10;6.07;86.34
79016;DHT22;72726;44.842;37.556;2024-03-07T01:42:12;6.07;86.28
79016;DHT22;72726;44.842;37.556;2024-03-07T01:43:13;6.07;86.49
79016;DHT22;72726;44.842;37.556;2024-03-07T01:44:15;6.07;86.29
79016;DHT22;72726;44.842;37.556;2024-03-07T01:45:17;6.02;85.90
79016;DHT22;72726;44.842;37.556;2024-03-07T01:46:19;6.01;86.07
79016;DHT22;72726;44.842;37.556;2024-03-07T01:47:21;5.99;86.38
79016;DHT22;72726;44.842;37.556;2024-03-07T01:48:26;6.01;86.46
79016;DHT22;72726;44.842;37.556;2024-03-07T01:49:29;5.97;86.59
79016;DHT22;72726;44.842;37.556;2024-03-07T01:50:31;5.93;86.29
79016;DHT22;72726;44.842;37.556;2024-03-07T01:51:34;5.88;86.33
79016;DHT22;72726;44.842;37.556;2024-03-07T01:52:38;5.84;86.50
79016;DHT22;72726;44.842;37.556;2024-03-07T01:53:40;5.84;86.65
79016;DHT22;72726;44.842;37.556;2024-03-07T01:54:42;5.81;86.80
79016;DHT22;72726;44.842;37.556;2024-03-07T01:55:44;5.81;86.95
79016;DHT22;72726;44.842;37.556;2024-03-07T01:56:45;5.81;86.80
79016;DHT22;72726;44.842;37.556;2024-03-07T01:57:47;5.80;86.74
79016;DHT22;72726;44.842;37.556;2024-03-07T01:58:49;5.75;86.81
79016;DHT22;72726;44.842;37.556;2024-03-07T01:59:52;5.73;87.21
79016;DHT22;72726;44.842;37.556;2024-03-07T02:00:53;5.74;87.38
79016;DHT22;72726;44.842;37.556;2024-03-07T02:01:55;5.73;87.44
79016;DHT22;72726;44.842;37.556;2024-03-07T02:02:57;5.73;87.49
79016;DHT22;72726;44.842;37.556;2024-03-07T02:03:59;5.73;87.44
79016;DHT22;72726;44.842;37.556;2024-03-07T02:05:00;5.73;87.62
79016;DHT22;72726;44.842;37.556;2024-03-07T02:06:02;5.71;87.46
79016;DHT22;72726;44.842;37.556;2024-03-07T02:07:04;5.73;87.52
79016;DHT22;72726;44.842;37.556;2024-03-07T02:08:05;5.75;87.73
79016;DHT22;72726;44.842;37.556;2024-03-07T02:09:07;5.71;87.57
79016;DHT22;72726;44.842;37.556;2024-03-07T02:10:09;5.74;87.51
79016;DHT22;72726;44.842;37.556;2024-03-07T02:11:10;5.74;87.49
79016;DHT22;72726;44.842;37.556;2024-03-07T02:12:13;5.77;87.71
79016;DHT22;72726;44.842;37.556;2024-03-07T02:13:14;5.81;87.70
79016;DHT22;72726;44.842;37.556;2024-03-07T02:14:16;5.81;87.10
79016;DHT22;72726;44.842;37.556;2024-03-07T02:15:17;5.83;87.25
79016;DHT22;72726;44.842;37.556;2024-03-07T02:16:19;5.86;87.35
79016;DHT22;72726;44.842;37.556;2024-03-07T02:17:21;5.88;87.40
79016;DHT22;72726;44.842;37.556;2024-03-07T02:18:23;5.87;87.00
79016;DHT22;72726;44.842;37.556;2024-03-07T02:19:25;5.90;86.75
79016;DHT22;72726;44.842;37.556;2024-03-07T02:20:27;5.90;86.77
79016;DHT22;72726;44.842;37.556;2024-03-07T02:21:29;5.91;86.67
79016;DHT22;72726;44.842;37.556;2024-03-07T02:22:30;5.91;86.71
79016;DHT22;72726;44.842;37.556;2024-03-07T02:23:32;5.95;86.91
79016;DHT22;72726;44.842;37.556;2024-03-07T02:24:33;5.99;86.89
79016;DHT22;72726;44.842;37.556;2024-03-07T02:25:35;6.04;86.76
79016;DHT22;72726;44.842;37.556;2024-03-07T02:26:38;5.98;85.94
79016;DHT22;72726;44.842;37.556;2024-03-07T02:27:40;5.99;86.30
79016;DHT22;72726;44.842;37.556;2024-03-07T02:28:42;5.99;86.44
79016;DHT22;72726;44.842;37.556;2024-03-07T02:29:43;6.04;86.48
79016;DHT22;72726;44.842;37.556;2024-03-07T02:30:44;6.08;86.25
79016;DHT22;72726;44.842;37.556;2024-03-07T02:31:47;6.12;86.28
79016;DHT22;72726;44.842;37.556;2024-03-07T02:32:48;6.18;86.04
79016;DHT22;72726;44.842;37.556;2024-03-07T02:33:53;6.16;85.34
79016;DHT22;72726;44.842;37.556;2024-03-07T02:34:54;6.08;84.90
79016;DHT22;72726;44.842;37.556;2024-03-07T02:35:55;6.07;85.18
79016;DHT22;72726;44.842;37.556;2024-03-07T02:36:57;6.05;85.37
79016;DHT22;72726;44.842;37.556;2024-03-07T02:37:58;6.02;85.04
79016;DHT22;72726;44.842;37.556;2024-03-07T02:39:00;6.02;85.28
79016;DHT22;72726;44.842;37.556;2024-03-07T02:40:01;6.05;85.63
79016;DHT22;72726;44.842;37.556;2024-03-07T02:41:04;5.99;85.60
79016;DHT22;72726;44.842;37.556;2024-03-07T02:42:06;6.04;85.72
79016;DHT22;72726;44.842;37.556;2024-03-07T02:43:08;6.05;85.50
79016;DHT22;72726;44.842;37.556;2024-03-07T02:44:09;6.05;85.47
79016;DHT22;72726;44.842;37.556;2024-03-07T02:45:10;6.05;85.62
79016;DHT22;72726;44.842;37.556;2024-03-07T02:46:15;6.02;85.36
79016;DHT22;72726;44.842;37.556;2024-03-07T02:47:17;5.98;85.40
79016;DHT22;72726;44.842;37.556;2024-03-07T02:48:19;5.95;85.64
79016;DHT22;72726;44.842;37.556;2024-03-07T02:49:20;5.90;85.62
79016;DHT22;72726;44.842;37.556;2024-03-07T02:50:22;5.91;85.83
79016;DHT22;72726;44.842;37.556;2024-03-07T02:51:24;5.93;85.95
79016;DHT22;72726;44.842;37.556;2024-03-07T02:52:26;5.94;86.04
79016;DHT22;72726;44.842;37.556;2024-03-07T02:53:27;5.97;86.17
79016;DHT22;72726;44.842;37.556;2024-03-07T02:54:29;5.94;85.97
79016;DHT22;72726;44.842;37.556;2024-03-07T02:55:31;5.91;85.64
79016;DHT22;72726;44.842;37.556;2024-03-07T02:56:33;5.90;85.49
79016;DHT22;72726;44.842;37.556;2024-03-07T02:57:34;5.87;85.53
79016;DHT22;72726;44.842;37.556;2024-03-07T02:58:36;5.81;85.49
79016;DHT22;72726;44.842;37.556;2024-03-07T02:59:38;5.81;85.83
79016;DHT22;72726;44.842;37.556;2024-03-07T03:00:39;5.81;85.85
79016;DHT22;72726;44.842;37.556;2024-03-07T03:01:40;5.80;86.02
79016;DHT22;72726;44.842;37.556;2024-03-07T03:02:42;5.86;86.09
79016;DHT22;72726;44.842;37.556;2024-03-07T03:03:44;5.86;86.03
79016;DHT22;72726;44.842;37.556;2024-03-07T03:04:46;5.90;86.00
79016;DHT22;72726;44.842;37.556;2024-03-07T03:05:49;5.94;85.72
79016;DHT22;72726;44.842;37.556;2024-03-07T03:06:50;5.95;85.47
79016;DHT22;72726;44.842;37.556;2024-03-07T03:07:52;5.93;84.67
79016;DHT22;72726;44.842;37.556;2024-03-07T03:08:56;5.86;84.61
79016;DHT22;72726;44.842;37.556;2024-03-07T03:09:57;5.86;84.85
79016;DHT22;72726;44.842;37.556;2024-03-07T03:10:59;5.84;84.60
79016;DHT22;72726;44.842;37.556;2024-03-07T03:12:01;5.81;84.82
79016;DHT22;72726;44.842;37.556;2024-03-07T03:13:02;5.80;84.95
79016;DHT22;72726;44.842;37.556;2024-03-07T03:14:04;5.80;84.64
79016;DHT22;72726;44.842;37.556;2024-03-07T03:15:07;5.81;84.73
79016;DHT22;72726;44.842;37.556;2024-03-07T03:16:09;5.81;84.61
79016;DHT22;72726;44.842;37.556;2024-03-07T03:17:13;5.81;84.62
79016;DHT22;72726;44.842;37.556;2024-03-07T03:18:15;5.80;84.44
79016;DHT22;72726;44.842;37.556;2024-03-07T03:19:19;5.81;84.30
79016;DHT22;72726;44.842;37.556;2024-03-07T03:20:20;5.78;84.15
79016;DHT22;72726;44.842;37.556;2024-03-07T03:21:25;5.78;84.10
79016;DHT22;72726;44.842;37.556;2024-03-07T03:22:26;5.77;84.03
79016;DHT22;72726;44.842;37.556;2024-03-07T03:23:29;5.78;84.13
79016;DHT22;72726;44.842;37.556;2024-03-07T03:24:30;5.83;84.09
79016;DHT22;72726;44.842;37.556;2024-03-07T03:25:32;5.86;84.22
79016;DHT22;72726;44.842;37.556;2024-03-07T03:26:36;5.81;83.88
79016;DHT22;72726;44.842;37.556;2024-03-07T03:27:38;5.84;83.83
79016;DHT22;72726;44.842;37.556;2024-03-07T03:28:39;5.84;83.99
79016;DHT22;72726;44.842;37.556;2024-03-07T03:29:42;5.83;83.84
79016;DHT22;72726;44.842;37.556;2024-03-07T03:30:44;5.83;83.77
79016;DHT22;72726;44.842;37.556;2024-03-07T03:31:45;5.84;83.65
79016;DHT22;72726;44.842;37.556;2024-03-07T03:32:47;5.86;83.61
79016;DHT22;72726;44.842;37.556;2024-03-07T03:33:49;5.84;83.79
79016;DHT22;72726;44.842;37.556;2024-03-07T03:34:52;5.78;83.77
79016;DHT22;72726;44.842;37.556;2024-03-07T03:35:53;5.73;84.12
79016;DHT22;72726;44.842;37.556;2024-03-07T03:36:56;5.74;83.56
79016;DHT22;72726;44.842;37.556;2024-03-07T03:37:57;5.73;83.48
79016;DHT22;72726;44.842;37.556;2024-03-07T03:38:59;5.71;83.62
79016;DHT22;72726;44.842;37.556;2024-03-07T03:40:00;5.74;83.65
79016;DHT22;72726;44.842;37.556;2024-03-07T03:41:02;5.71;83.32
79016;DHT22;72726;44.842;37.556;2024-03-07T03:42:05;5.69;83.57
79016;DHT22;72726;44.842;37.556;2024-03-07T03:43:07;5.67;83.68
79016;DHT22;72726;44.842;37.556;2024-03-07T03:44:09;5.69;83.44
79016;DHT22;72726;44.842;37.556;2024-03-07T03:45:10;5.71;83.45
79016;DHT22;72726;44.842;37.556;2024-03-07T03:46:16;5.77;83.44
79016;DHT22;72726;44.842;37.556;2024-03-07T03:47:18;5.77;83.29
79016;DHT22;72726;44.842;37.556;2024-03-07T03:48:20;5.80;83.32
79016;DHT22;72726;44.842;37.556;2024-03-07T03:49:21;5.77;83.58
79016;DHT22;72726;44.842;37.556;2024-03-07T03:50:23;5.75;83.57
79016;DHT22;72726;44.842;37.556;2024-03-07T03:51:24;5.73;83.63
79016;DHT22;72726;44.842;37.556;2024-03-07T03:52:26;5.74;83.63
79016;DHT22;72726;44.842;37.556;2024-03-07T03:53:27;5.73;83.44
79016;DHT22;72726;44.842;37.556;2024-03-07T03:54:29;5.70;83.30
79016;DHT22;72726;44.842;37.556;2024-03-07T03:55:30;5.64;83.46
79016;DHT22;72726;44.842;37.556;2024-03-07T03:56:33;5.63;83.58
79016;DHT22;72726;44.842;37.556;2024-03-07T03:57:35;5.59;83.77
79016;DHT22;72726;44.842;37.556;2024-03-07T03:58:37;5.59;83.65
79016;DHT22;72726;44.842;37.556;2024-03-07T03:59:42;5.54;83.44
79016;DHT22;72726;44.842;37.556;2024-03-07T04:00:45;5.49;83.71
79016;DHT22;72726;44.842;37.556;2024-03-07T04:01:47;5.49;83.88
79016;DHT22;72726;44.842;37.556;2024-03-07T04:02:49;5.46;83.87
79016;DHT22;72726;44.842;37.556;2024-03-07T04:03:50;5.46;83.97
79016;DHT22;72726;44.842;37.556;2024-03-07T04:04:52;5.45;83.86
79016;DHT22;72726;44.842;37.556;2024-03-07T04:05:54;5.43;83.48
79016;DHT22;72726;44.842;37.556;2024-03-07T04:06:56;5.49;83.32
79016;DHT22;72726;44.842;37.556;2024-03-07T04:07:57;5.52;83.45
79016;DHT22;72726;44.842;37.556;2024-03-07T04:08:59;5.57;83.25
79016;DHT22;72726;44.842;37.556;2024-03-07T04:10:01;5.59;83.21
79016;DHT22;72726;44.842;37.556;2024-03-07T04:11:04;5.62;83.20
79016;DHT22;72726;44.842;37.556;2024-03-07T04:12:06;5.66;83.31
79016;DHT22;72726;44.842;37.556;2024-03-07T04:13:07;5.69;83.19
79016;DHT22;72726;44.842;37.556;2024-03-07T04:14:09;5.71;83.19
79016;DHT22;72726;44.842;37.556;2024-03-07T04:15:13;5.71;83.21
79016;DHT22;72726;44.842;37.556;2024-03-07T04:16:17;5.75;83.01
79016;DHT22;72726;44.842;37.556;2024-03-07T04:17:19;5.75;82.88
79016;DHT22;72726;44.842;37.556;2024-03-07T04:18:22;5.78;82.70
79016;DHT22;72726;44.842;37.556;2024-03-07T04:19:23;5.77;82.58
79016;DHT22;72726;44.842;37.556;2024-03-07T04:20:26;5.78;82.51
79016;DHT22;72726;44.842;37.556;2024-03-07T04:21:28;5.80;82.37
79016;DHT22;72726;44.842;37.556;2024-03-07T04:22:29;5.81;82.07
79016;DHT22;72726;44.842;37.556;2024-03-07T04:23:30;5.80;81.87
79016;DHT22;72726;44.842;37.556;2024-03-07T04:24:32;5.78;81.57
79016;DHT22;72726;44.842;37.556;2024-03-07T04:25:36;5.81;81.85
79016;DHT22;72726;44.842;37.556;2024-03-07T04:26:38;5.81;81.83
79016;DHT22;72726;44.842;37.556;2024-03-07T04:27:39;5.80;81.75
79016;DHT22;72726;44.842;37.556;2024-03-07T04:28:41;5.77;81.58
79016;DHT22;72726;44.842;37.556;2024-03-07T04:29:42;5.74;81.89
79016;DHT22;72726;44.842;37.556;2024-03-07T04:30:43;5.71;81.78
79016;DHT22;72726;44.842;37.556;2024-03-07T04:31:45;5.71;81.56
79016;DHT22;72726;44.842;37.556;2024-03-07T04:32:48;5.70;81.24
79016;DHT22;72726;44.842;37.556;2024-03-07T04:33:49;5.67;81.16
79016;DHT22;72726;44.842;37.556;2024-03-07T04:34:52;5.62;81.05
79016;DHT22;72726;44.842;37.556;2024-03-07T04:35:53;5.57;80.91
79016;DHT22;72726;44.842;37.556;2024-03-07T04:36:54;5.56;81.04
79016;DHT22;72726;44.842;37.556;2024-03-07T04:37:56;5.54;81.41
79016;DHT22;72726;44.842;37.556;2024-03-07T04:38:58;5.53;81.16
79016;DHT22;72726;44.842;37.556;2024-03-07T04:40:05;5.42;81.30
79016;DHT22;72726;44.842;37.556;2024-03-07T04:41:16;5.40;81.68
79016;DHT22;72726;44.842;37.556;2024-03-07T04:42:17;5.36;81.61
79016;DHT22;72726;44.842;37.556;2024-03-07T04:43:19;5.29;81.87
79016;DHT22;72726;44.842;37.556;2024-03-07T04:44:21;5.25;81.86
79016;DHT22;72726;44.842;37.556;2024-03-07T04:45:23;5.16;81.97
79016;DHT22;72726;44.842;37.556;2024-03-07T04:46:25;5.15;82.53
79016;DHT22;72726;44.842;37.556;2024-03-07T04:47:26;5.18;82.94
79016;DHT22;72726;44.842;37.556;2024-03-07T04:48:27;5.19;82.92
79016;DHT22;72726;44.842;37.556;2024-03-07T04:49:30;5.22;82.81
79016;DHT22;72726;44.842;37.556;2024-03-07T04:50:31;5.21;82.28
79016;DHT22;72726;44.842;37.556;2024-03-07T04:51:33;5.18;82.33
79016;DHT22;72726;44.842;37.556;2024-03-07T04:52:34;5.14;81.99
79016;DHT22;72726;44.842;37.556;2024-03-07T04:53:36;5.01;82.18
79016;DHT22;72726;44.842;37.556;2024-03-07T04:54:43;4.99;82.80
79016;DHT22;72726;44.842;37.556;2024-03-07T04:55:44;4.98;82.64
79016;DHT22;72726;44.842;37.556;2024-03-07T04:56:46;4.95;82.94
79016;DHT22;72726;44.842;37.556;2024-03-07T04:57:47;4.95;82.71
79016;DHT22;72726;44.842;37.556;2024-03-07T04:58:48;4.91;82.66
79016;DHT22;72726;44.842;37.556;2024-03-07T04:59:51;4.83;82.16
79016;DHT22;72726;44.842;37.556;2024-03-07T05:00:52;4.81;83.04
79016;DHT22;72726;44.842;37.556;2024-03-07T05:01:53;4.83;82.80
79016;DHT22;72726;44.842;37.556;2024-03-07T05:02:55;4.80;82.92
79016;DHT22;72726;44.842;37.556;2024-03-07T05:03:56;4.77;83.15
79016;DHT22;72726;44.842;37.556;2024-03-07T05:04:58;4.73;83.30
79016;DHT22;72726;44.842;37.556;2024-03-07T05:06:00;4.71;83.48
79016;DHT22;72726;44.842;37.556;2024-03-07T05:07:01;4.73;83.72
79016;DHT22;72726;44.842;37.556;2024-03-07T05:08:02;4.70;83.50
79016;DHT22;72726;44.842;37.556;2024-03-07T05:09:07;4.69;83.18
79016;DHT22;72726;44.842;37.556;2024-03-07T05:10:09;4.64;83.17
79016;DHT22;72726;44.842;37.556;2024-03-07T05:11:19;4.61;83.35
79016;DHT22;72726;44.842;37.556;2024-03-07T05:12:29;4.61;83.92
79016;DHT22;72726;44.842;37.556;2024-03-07T05:13:34;4.60;83.73
79016;DHT22;72726;44.842;37.556;2024-03-07T05:14:35;4.61;83.40
79016;DHT22;72726;44.842;37.556;2024-03-07T05:15:37;4.57;83.37
79016;DHT22;72726;44.842;37.556;2024-03-07T05:16:38;4.61;83.54
79016;DHT22;72726;44.842;37.556;2024-03-07T05:17:39;4.64;83.62
79016;DHT22;72726;44.842;37.556;2024-03-07T05:18:43;4.66;83.61
79016;DHT22;72726;44.842;37.556;2024-03-07T05:19:45;4.63;83.22
79016;DHT22;72726;44.842;37.556;2024-03-07T05:20:47;4.60;83.00
79016;DHT22;72726;44.842;37.556;2024-03-07T05:21:48;4.56;83.18
79016;DHT22;72726;44.842;37.556;2024-03-07T05:22:51;4.54;83.56
79016;DHT22;72726;44.842;37.556;2024-03-07T05:23:53;4.54;83.56
79016;DHT22;72726;44.842;37.556;2024-03-07T05:24:54;4.57;83.52
79016;DHT22;72726;44.842;37.556;2024-03-07T05:25:58;4.57;83.54
79016;DHT22;72726;44.842;37.556;2024-03-07T05:26:59;4.53;83.29
79016;DHT22;72726;44.842;37.556;2024-03-07T05:28:00;4.52;83.15
79016;DHT22;72726;44.842;37.556;2024-03-07T05:29:04;4.52;83.47
79016;DHT22;72726;44.842;37.556;2024-03-07T05:30:09;4.49;83.51
79016;DHT22;72726;44.842;37.556;2024-03-07T05:31:12;4.49;83.46
79016;DHT22;72726;44.842;37.556;2024-03-07T05:32:23;4.53;83.22
79016;DHT22;72726;44.842;37.556;2024-03-07T05:33:28;4.50;83.04
79016;DHT22;72726;44.842;37.556;2024-03-07T05:34:30;4.45;82.65
79016;DHT22;72726;44.842;37.556;2024-03-07T05:35:34;4.38;82.58
79016;DHT22;72726;44.842;37.556;2024-03-07T05:36:35;4.35;83.32
79016;DHT22;72726;44.842;37.556;2024-03-07T05:37:37;4.35;83.54
79016;DHT22;72726;44.842;37.556;2024-03-07T05:38:44;4.35;83.71
79016;DHT22;72726;44.842;37.556;2024-03-07T05:39:46;4.38;83.44
79016;DHT22;72726;44.842;37.556;2024-03-07T05:40:47;4.32;83.27
79016;DHT22;72726;44.842;37.556;2024-03-07T05:41:51;4.38;83.61
79016;DHT22;72726;44.842;37.556;2024-03-07T05:42:58;4.36;83.05
79016;DHT22;72726;44.842;37.556;2024-03-07T05:44:00;4.38;83.20
79016;DHT22;72726;44.842;37.556;2024-03-07T05:45:02;4.36;83.42
79016;DHT22;72726;44.842;37.556;2024-03-07T05:46:03;4.39;83.76
79016;DHT22;72726;44.842;37.556;2024-03-07T05:47:10;4.42;83.32
79016;DHT22;72726;44.842;37.556;2024-03-07T05:48:15;4.45;83.33
79016;DHT22;72726;44.842;37.556;2024-03-07T05:49:19;4.45;82.53
79016;DHT22;72726;44.842;37.556;2024-03-07T05:50:23;4.41;82.43
79016;DHT22;72726;44.842;37.556;2024-03-07T05:51:25;4.39;82.84
79016;DHT22;72726;44.842;37.556;2024-03-07T05:52:26;4.41;83.12
79016;DHT22;72726;44.842;37.556;2024-03-07T05:53:28;4.42;82.64
79016;DHT22;72726;44.842;37.556;2024-03-07T05:54:32;4.35;82.18
79016;DHT22;72726;44.842;37.556;2024-03-07T05:55:34;4.36;82.88
79016;DHT22;72726;44.842;37.556;2024-03-07T05:56:36;4.36;82.81
79016;DHT22;72726;44.842;37.556;2024-03-07T05:57:37;4.36;82.87
79016;DHT22;72726;44.842;37.556;2024-03-07T05:58:40;4.36;83.03
79016;DHT22;72726;44.842;37.556;2024-03-07T05:59:41;4.36;82.59
79016;DHT22;72726;44.842;37.556;2024-03-07T06:00:46;4.35;82.80
79016;DHT22;72726;44.842;37.556;2024-03-07T06:01:50;4.32;82.94
79016;DHT22;72726;44.842;37.556;2024-03-07T06:02:52;4.32;83.23
79016;DHT22;72726;44.842;37.556;2024-03-07T06:03:56;4.32;83.32
79016;DHT22;72726;44.842;37.556;2024-03-07T06:04:58;4.31;82.96
79016;DHT22;72726;44.842;37.556;2024-03-07T06:06:00;4.29;82.99
79016;DHT22;72726;44.842;37.556;2024-03-07T06:07:01;4.29;83.15
79016;DHT22;72726;44.842;37.556;2024-03-07T06:08:03;4.29;83.05
79016;DHT22;72726;44.842;37.556;2024-03-07T06:09:09;4.29;82.61
79016;DHT22;72726;44.842;37.556;2024-03-07T06:10:11;4.29;82.90
79016;DHT22;72726;44.842;37.556;2024-03-07T06:11:12;4.31;83.35
79016;DHT22;72726;44.842;37.556;2024-03-07T06:12:14;4.29;82.93
79016;DHT22;72726;44.842;37.556;2024-03-07T06:13:19;4.32;83.29
79016;DHT22;72726;44.842;37.556;2024-03-07T06:14:20;4.33;83.31
79016;DHT22;72726;44.842;37.556;2024-03-07T06:15:21;4.35;83.03
79016;DHT22;72726;44.842;37.556;2024-03-07T06:16:23;4.33;83.06
79016;DHT22;72726;44.842;37.556;2024-03-07T06:17:24;4.33;83.04
79016;DHT22;72726;44.842;37.556;2024-03-07T06:18:26;4.35;82.88
79016;DHT22;72726;44.842;37.556;2024-03-07T06:19:39;4.31;82.69
79016;DHT22;72726;44.842;37.556;2024-03-07T06:20:41;4.31;82.67
79016;DHT22;72726;44.842;37.556;2024-03-07T06:21:43;4.26;82.39
79016;DHT22;72726;44.842;37.556;2024-03-07T06:22:45;4.24;82.30
79016;DHT22;72726;44.842;37.556;2024-03-07T06:23:46;4.25;83.10
79016;DHT22;72726;44.842;37.556;2024-03-07T06:24:48;4.32;83.39
79016;DHT22;72726;44.842;37.556;2024-03-07T06:25:51;4.36;82.94
79016;DHT22;72726;44.842;37.556;2024-03-07T06:26:55;4.38;83.00
79016;DHT22;72726;44.842;37.556;2024-03-07T06:28:05;4.33;82.81
79016;DHT22;72726;44.842;37.556;2024-03-07T06:29:14;4.33;82.42
79016;DHT22;72726;44.842;37.556;2024-03-07T06:30:19;4.32;82.61
79016;DHT22;72726;44.842;37.556;2024-03-07T06:31:20;4.33;82.67
79016;DHT22;72726;44.842;37.556;2024-03-07T06:32:21;4.33;82.94
79016;DHT22;72726;44.842;37.556;2024-03-07T06:33:23;4.39;83.04